Time;durP1;ratioP1;P1;durP2;ratioP2;P2;SDS_P1;SDS_P2;PMS_P1;PMS_P2;Temp;Humidity;BMP_temperature;BMP_pressure;BME280_temperature;BME280_humidity;BME280_pressure;Samples;Min_cycle;Max_cycle;Signal;HPM_P1;HPM_P2
2021/04/12 00:00:02;;;;;;;0.93;0.30;;;6.60;69.50;;;;;;4996760;28;20030;-80
2021/04/12 00:02:33;;;;;;;0.10;0.00;;;6.60;69.60;;;;;;4996972;28;20046;-80
2021/04/12 00:05:21;;;;;;;0.10;0.10;;;6.60;69.60;;;;;;4996098;28;20033;-80
2021/04/12 00:07:56;;;;;;;0.53;0.23;;;6.50;69.60;;;;;;4979592;28;20050;-80
2021/04/12 00:10:44;;;;;;;0.10;0.07;;;6.50;69.60;;;;;;4994762;28;20034;-80
2021/04/12 00:13:42;;;;;;;1.83;0.43;;;6.50;69.60;;;;;;4998955;28;20050;-80
2021/04/12 00:16:34;;;;;;;0.97;0.10;;;6.40;69.60;;;;;;4996670;28;20031;-81
2021/04/12 00:19:02;;;;;;;;;;;6.50;69.60;;;;;;4997997;28;20092;-80
2021/04/12 00:21:46;;;;;;;0.20;0.13;;;6.40;69.50;;;;;;4996133;28;20367;-80
2021/04/12 00:24:33;;;;;;;0.40;0.27;;;6.40;69.40;;;;;;4997387;28;20057;-80
2021/04/12 00:27:12;;;;;;;0.10;0.00;;;6.40;69.40;;;;;;4996047;28;20498;-80
2021/04/12 00:29:45;;;;;;;0.10;0.10;;;6.40;69.40;;;;;;4996083;28;20026;-80
2021/04/12 00:32:25;;;;;;;0.10;0.00;;;6.40;69.40;;;;;;4995670;28;20034;-80
2021/04/12 00:34:59;;;;;;;0.07;0.03;;;6.30;69.50;;;;;;4996851;28;20061;-80
2021/04/12 00:37:35;;;;;;;0.20;0.00;;;6.30;69.50;;;;;;4995346;28;20037;-80
2021/04/12 00:40:32;;;;;;;0.13;0.00;;;6.30;69.50;;;;;;4995620;28;20035;-80
2021/04/12 00:43:40;;;;;;;0.77;0.53;;;6.30;69.50;;;;;;4997525;28;20487;-80
2021/04/12 00:46:17;;;;;;;0.43;0.20;;;6.30;69.50;;;;;;4975972;28;20047;-81
2021/04/12 00:49:01;;;;;;;0.20;0.07;;;6.20;69.40;;;;;;4975043;28;20632;-80
2021/04/12 00:51:27;;;;;;;0.30;0.20;;;6.20;69.40;;;;;;4974369;28;20046;-80
2021/04/12 00:54:15;;;;;;;1.20;0.07;;;6.20;69.40;;;;;;4974536;28;20607;-80
2021/04/12 00:56:48;;;;;;;0.30;0.07;;;6.20;69.50;;;;;;4975142;28;20528;-80
2021/04/12 00:59:32;;;;;;;0.00;0.00;;;6.10;69.40;;;;;;4973941;28;20023;-80
2021/04/12 01:02:16;;;;;;;0.20;0.03;;;6.10;69.50;;;;;;4942711;28;20038;-80
2021/04/12 01:04:48;;;;;;;0.73;0.20;;;6.10;69.40;;;;;;4974412;28;20046;-80
2021/04/12 01:07:22;;;;;;;0.00;0.00;;;6.10;69.40;;;;;;4955213;28;20035;-80
2021/04/12 01:10:09;;;;;;;0.00;0.00;;;6.10;69.30;;;;;;4964819;28;20038;-80
2021/04/12 01:13:23;;;;;;;0.17;0.10;;;6.10;69.30;;;;;;4974834;28;20047;-80
2021/04/12 01:15:53;;;;;;;0.20;0.20;;;6.10;69.30;;;;;;4960466;28;20031;-80
2021/04/12 01:18:37;;;;;;;0.10;0.00;;;6.10;69.30;;;;;;4990705;28;20502;-80
2021/04/12 01:21:27;;;;;;;1.23;0.60;;;6.00;69.30;;;;;;4996107;28;20033;-80
2021/04/12 01:24:26;;;;;;;0.38;0.13;;;6.00;69.40;;;;;;4996330;28;20030;-80
2021/04/12 01:27:07;;;;;;;0.50;0.30;;;6.00;69.50;;;;;;4981352;28;20038;-80
2021/04/12 01:30:07;;;;;;;0.22;0.10;;;6.00;69.50;;;;;;4995212;28;20022;-80
2021/04/12 01:32:48;;;;;;;0.00;0.00;;;5.90;69.40;;;;;;4983821;28;20046;-79
2021/04/12 01:35:39;;;;;;;0.15;0.05;;;5.90;69.50;;;;;;4982258;28;20028;-80
2021/04/12 01:38:23;;;;;;;0.57;0.30;;;5.90;69.40;;;;;;4981184;28;20030;-80
2021/04/12 01:40:58;;;;;;;0.30;0.20;;;5.90;69.50;;;;;;4996107;28;20031;-80
2021/04/12 01:43:57;;;;;;;0.00;0.00;;;5.80;69.50;;;;;;4977937;28;20042;-80
2021/04/12 01:46:28;;;;;;;0.20;0.10;;;5.80;69.50;;;;;;4936819;28;20055;-80
2021/04/12 01:49:13;;;;;;;0.10;0.00;;;5.80;69.50;;;;;;4930659;29;20043;-81
2021/04/12 01:51:55;;;;;;;0.33;0.30;;;5.80;69.50;;;;;;4939480;29;20048;-82
2021/04/12 01:54:24;;;;;;;0.60;0.47;;;5.80;69.50;;;;;;4939885;29;20035;-80
2021/04/12 01:57:14;;;;;;;0.53;0.20;;;5.80;69.50;;;;;;4939934;29;20050;-79
2021/04/12 02:00:17;;;;;;;0.73;0.20;;;5.80;69.50;;;;;;4939540;29;20027;-80
2021/04/12 02:02:55;;;;;;;0.40;0.27;;;5.80;69.50;;;;;;4938395;28;20039;-79
2021/04/12 02:06:09;;;;;;;0.13;0.10;;;5.80;69.60;;;;;;4944623;28;20394;-80
2021/04/12 02:08:41;;;;;;;0.73;0.30;;;5.70;69.50;;;;;;4937445;29;20738;-80
2021/04/12 02:11:21;;;;;;;0.00;0.00;;;5.70;69.60;;;;;;4932305;29;20038;-79
2021/04/12 02:14:10;;;;;;;0.30;0.20;;;5.70;69.70;;;;;;4934754;29;20042;-79
2021/04/12 02:16:45;;;;;;;1.73;0.30;;;5.70;69.70;;;;;;4930319;28;20066;-81
2021/04/12 02:19:41;;;;;;;0.33;0.20;;;5.60;69.70;;;;;;4936493;29;20589;-80
2021/04/12 02:22:37;;;;;;;0.57;0.27;;;5.60;69.80;;;;;;4947253;28;20515;-80
2021/04/12 02:25:30;;;;;;;0.80;0.20;;;5.60;69.80;;;;;;4992286;28;20034;-80
2021/04/12 02:28:27;;;;;;;1.10;0.20;;;5.60;69.80;;;;;;4987724;28;20038;-80
2021/04/12 02:31:05;;;;;;;0.20;0.00;;;5.60;69.80;;;;;;4988358;28;20038;-80
2021/04/12 02:33:41;;;;;;;0.30;0.10;;;5.50;69.80;;;;;;4988788;28;20039;-80
2021/04/12 02:36:07;;;;;;;0.40;0.10;;;5.50;69.90;;;;;;4974330;28;20395;-79
2021/04/12 02:38:55;;;;;;;0.40;0.10;;;5.40;69.90;;;;;;4994782;28;20033;-79
2021/04/12 02:41:49;;;;;;;1.00;0.23;;;5.40;70.00;;;;;;4982022;28;20030;-80
2021/04/12 02:44:27;;;;;;;1.60;0.40;;;5.40;70.00;;;;;;4979837;28;20019;-80
2021/04/12 02:47:11;;;;;;;0.43;0.17;;;5.40;70.00;;;;;;4994341;28;20065;-80
2021/04/12 02:50:08;;;;;;;0.70;0.10;;;5.30;70.00;;;;;;5005849;28;20061;-79
2021/04/12 02:52:54;;;;;;;0.30;0.30;;;5.30;70.00;;;;;;4989385;28;20050;-80
2021/04/12 02:55:38;;;;;;;0.97;0.50;;;5.30;70.10;;;;;;4991639;28;20031;-80
2021/04/12 02:58:40;;;;;;;3.00;1.00;;;5.30;70.10;;;;;;4993787;28;20098;-79
2021/04/12 03:01:24;;;;;;;3.13;1.00;;;5.20;70.10;;;;;;4993445;28;20499;-79
2021/04/12 03:04:12;;;;;;;0.30;0.17;;;5.20;70.10;;;;;;4994476;28;20035;-80
2021/04/12 03:07:00;;;;;;;4.53;0.90;;;5.20;70.10;;;;;;4993196;28;20034;-81
2021/04/12 03:09:40;;;;;;;0.63;0.37;;;5.10;70.10;;;;;;4994388;28;20022;-80
2021/04/12 03:12:44;;;;;;;0.00;0.00;;;5.10;70.10;;;;;;4992936;28;20030;-80
2021/04/12 03:15:42;;;;;;;0.83;0.50;;;5.10;70.10;;;;;;4993705;28;20046;-80
2021/04/12 03:18:27;;;;;;;1.33;0.50;;;5.10;70.10;;;;;;4993074;28;20480;-80
2021/04/12 03:21:17;;;;;;;1.07;0.70;;;5.10;70.10;;;;;;4994248;28;20038;-80
2021/04/12 03:24:23;;;;;;;1.73;0.87;;;5.10;70.10;;;;;;4993054;28;20034;-80
2021/04/12 03:27:17;;;;;;;6.57;0.70;;;5.00;70.20;;;;;;4993075;28;20365;-80
2021/04/12 03:30:15;;;;;;;0.77;0.50;;;5.00;70.20;;;;;;4993602;28;20030;-80
2021/04/12 03:32:43;;;;;;;7.77;1.10;;;4.90;70.10;;;;;;4978711;28;20054;-80
2021/04/12 03:35:15;;;;;;;1.33;0.50;;;4.90;70.20;;;;;;4992788;28;20034;-79
2021/04/12 03:38:03;;;;;;;7.83;0.63;;;5.00;70.30;;;;;;4975668;28;20061;-80
2021/04/12 03:40:31;;;;;;;3.90;0.70;;;4.90;70.30;;;;;;4989065;28;20045;-79
2021/04/12 03:43:15;;;;;;;2.07;0.80;;;4.90;70.30;;;;;;4991563;28;20443;-79
2021/04/12 03:46:09;;;;;;;1.27;0.80;;;4.90;70.40;;;;;;4993195;28;20525;-80
2021/04/12 03:48:50;;;;;;;1.40;0.47;;;4.90;70.50;;;;;;4979159;28;20030;-80
2021/04/12 03:51:58;;;;;;;1.23;0.65;;;4.90;70.50;;;;;;4992458;28;20045;-79
2021/04/12 03:54:39;;;;;;;1.80;0.50;;;4.90;70.50;;;;;;4971990;28;20046;-79
2021/04/12 03:57:17;;;;;;;2.15;0.55;;;4.90;70.40;;;;;;4971883;28;20042;-80
2021/04/12 03:59:58;;;;;;;3.43;0.90;;;4.90;70.40;;;;;;4972224;28;20050;-80
2021/04/12 04:02:33;;;;;;;1.70;0.88;;;4.90;70.50;;;;;;4971521;28;20023;-80
2021/04/12 04:05:27;;;;;;;5.37;0.83;;;4.90;70.50;;;;;;4972166;28;20046;-79
2021/04/12 04:08:12;;;;;;;1.30;0.80;;;4.90;70.50;;;;;;4972212;28;20034;-79
2021/04/12 04:11:17;;;;;;;1.20;0.50;;;4.80;70.40;;;;;;4971193;28;20134;-80
2021/04/12 04:14:01;;;;;;;1.87;0.70;;;4.80;70.50;;;;;;4971716;28;20047;-79
2021/04/12 04:16:33;;;;;;;4.33;1.40;;;4.70;70.40;;;;;;4966475;28;20535;-79
2021/04/12 04:19:14;;;;;;;0.60;0.30;;;4.80;70.60;;;;;;4957451;28;20054;-79
2021/04/12 04:21:46;;;;;;;;;;;4.70;70.50;;;;;;4940389;28;20062;-80
2021/04/12 04:24:45;;;;;;;6.53;0.87;;;4.70;70.60;;;;;;4955868;28;20309;-79
2021/04/12 04:27:18;;;;;;;2.90;1.13;;;4.60;70.40;;;;;;4957550;28;20038;-79
2021/04/12 04:30:21;;;;;;;1.50;1.10;;;4.70;70.50;;;;;;4970475;28;20039;-79
2021/04/12 04:32:53;;;;;;;3.23;1.40;;;4.60;70.60;;;;;;4992767;28;20038;-80
2021/04/12 04:35:36;;;;;;;0.57;0.40;;;4.60;70.60;;;;;;4992298;28;20037;-80
2021/04/12 04:38:39;;;;;;;1.90;1.03;;;4.60;70.60;;;;;;4977109;28;20026;-79
2021/04/12 04:41:43;;;;;;;0.50;0.50;;;4.50;70.60;;;;;;4994064;28;20505;-79
2021/04/12 04:44:35;;;;;;;1.23;0.40;;;4.60;70.60;;;;;;4982847;28;20030;-80
2021/04/12 04:47:01;;;;;;;1.07;0.77;;;4.50;70.60;;;;;;4955387;28;20065;-79
2021/04/12 04:49:41;;;;;;;0.50;0.10;;;4.50;70.60;;;;;;4955198;29;20043;-79
2021/04/12 04:52:30;;;;;;;0.50;0.20;;;4.50;70.70;;;;;;4956708;28;20059;-82
2021/04/12 04:55:27;;;;;;;2.53;0.87;;;4.50;70.80;;;;;;4939659;29;20039;-80
2021/04/12 04:58:16;;;;;;;0.33;0.20;;;4.40;70.70;;;;;;4955828;28;20135;-79
2021/04/12 05:00:57;;;;;;;3.40;0.73;;;4.40;70.70;;;;;;4940377;29;20039;-79
2021/04/12 05:04:00;;;;;;;0.75;0.50;;;4.40;70.80;;;;;;4922445;29;20038;-79
2021/04/12 05:06:47;;;;;;;1.10;0.57;;;4.40;70.80;;;;;;4893584;29;20033;-79
2021/04/12 05:09:22;;;;;;;1.37;0.83;;;4.40;70.80;;;;;;4891337;29;20036;-79
2021/04/12 05:12:14;;;;;;;0.50;0.10;;;4.40;70.70;;;;;;4896692;29;20482;-79
2021/04/12 05:15:21;;;;;;;0.47;0.20;;;4.40;70.70;;;;;;4897194;29;20037;-80
2021/04/12 05:18:24;;;;;;;0.67;0.37;;;4.40;70.70;;;;;;4880081;29;20502;-79
2021/04/12 05:21:11;;;;;;;0.47;0.30;;;4.40;70.70;;;;;;4897229;29;20048;-79
2021/04/12 05:23:37;;;;;;;0.93;0.53;;;4.30;70.70;;;;;;4905512;29;20433;-79
2021/04/12 05:26:21;;;;;;;0.93;0.43;;;4.30;70.70;;;;;;4933467;29;20039;-79
2021/04/12 05:29:21;;;;;;;0.80;0.47;;;4.30;70.80;;;;;;4933477;29;20038;-79
2021/04/12 05:32:06;;;;;;;0.47;0.37;;;4.30;70.90;;;;;;4894109;29;20037;-79
2021/04/12 05:35:06;;;;;;;1.00;0.53;;;4.30;70.80;;;;;;4897345;29;20048;-79
2021/04/12 05:37:43;;;;;;;3.00;1.53;;;4.30;70.70;;;;;;4893697;29;20407;-81
2021/04/12 05:40:12;;;;;;;1.07;0.80;;;4.30;70.70;;;;;;4881664;29;20076;-80
2021/04/12 05:43:15;;;;;;;2.17;1.43;;;4.30;70.70;;;;;;4887806;29;20050;-79
2021/04/12 05:45:47;;;;;;;1.97;1.13;;;4.30;70.70;;;;;;4932668;28;20043;-79
2021/04/12 05:48:57;;;;;;;2.87;1.67;;;4.30;70.80;;;;;;4931218;29;20028;-81
2021/04/12 05:51:37;;;;;;;4.97;2.37;;;4.30;70.90;;;;;;4874915;29;20040;-79
2021/04/12 05:54:36;;;;;;;4.07;2.10;;;4.30;70.80;;;;;;4862935;29;20057;-79
2021/04/12 05:57:12;;;;;;;3.57;2.23;;;4.30;70.70;;;;;;4874802;29;20037;-80
2021/04/12 06:00:00;;;;;;;10.57;3.77;;;4.40;70.70;;;;;;4845746;29;20171;-79
2021/04/12 06:02:46;;;;;;;7.37;5.20;;;4.50;70.50;;;;;;4861471;29;20037;-80
2021/04/12 06:05:18;;;;;;;6.23;4.00;;;4.70;70.30;;;;;;4862781;29;20056;-81
2021/04/12 06:07:59;;;;;;;9.57;2.73;;;4.70;70.00;;;;;;4874861;29;20045;-80
2021/04/12 06:11:02;;;;;;;3.85;2.95;;;4.80;70.10;;;;;;4869750;29;20399;-80
2021/04/12 06:13:49;;;;;;;3.23;2.10;;;5.10;69.90;;;;;;4855497;29;20093;-80
2021/04/12 06:16:24;;;;;;;2.80;2.10;;;5.40;69.50;;;;;;4842021;29;20534;-80
2021/04/12 06:19:01;;;;;;;3.40;2.30;;;5.70;68.90;;;;;;4857510;29;20048;-79
2021/04/12 06:21:36;;;;;;;2.30;1.43;;;6.00;69.20;;;;;;4853882;29;20045;-80
2021/04/12 06:24:39;;;;;;;8.30;1.70;;;6.30;67.90;;;;;;4848945;29;20042;-80
2021/04/12 06:27:05;;;;;;;2.33;1.60;;;6.50;67.60;;;;;;4889653;29;20394;-80
2021/04/12 06:29:49;;;;;;;3.53;1.63;;;6.70;67.30;;;;;;4914810;29;20036;-80
2021/04/12 06:32:53;;;;;;;3.42;1.20;;;6.80;67.20;;;;;;4916898;29;20063;-80
2021/04/12 06:35:19;;;;;;;4.15;1.92;;;7.00;67.30;;;;;;4922013;29;20047;-80
2021/04/12 06:37:54;;;;;;;1.43;1.07;;;7.10;67.20;;;;;;4934426;29;20039;-80
2021/04/12 06:40:32;;;;;;;3.22;1.30;;;7.20;67.10;;;;;;4932980;29;20035;-80
2021/04/12 06:43:06;;;;;;;5.20;1.67;;;7.40;67.00;;;;;;5001484;28;20038;-80
2021/04/12 06:45:44;;;;;;;6.72;0.65;;;7.60;66.90;;;;;;4992871;28;20038;-80
2021/04/12 06:48:29;;;;;;;2.80;1.33;;;7.70;66.70;;;;;;4994749;28;20031;-81
2021/04/12 06:51:33;;;;;;;2.42;1.58;;;7.90;66.60;;;;;;4994311;28;21527;-80
2021/04/12 06:54:31;;;;;;;4.00;1.95;;;8.10;66.50;;;;;;4956477;28;20046;-80
2021/04/12 06:57:03;;;;;;;2.40;1.10;;;8.30;66.20;;;;;;4971808;28;20027;-80
2021/04/12 06:59:56;;;;;;;2.28;1.00;;;8.40;66.00;;;;;;4972923;28;20058;-80
2021/04/12 07:02:58;;;;;;;2.55;1.58;;;8.60;66.00;;;;;;4972415;28;20030;-81
2021/04/12 07:05:42;;;;;;;;;;;8.70;65.80;;;;;;4916535;29;20481;-80
2021/04/12 07:08:32;;;;;;;4.15;1.80;;;8.90;65.50;;;;;;4918216;29;19906;-80
2021/04/12 07:11:12;;;;;;;6.13;1.92;;;9.10;65.30;;;;;;4930559;29;20512;-81
2021/04/12 07:14:17;;;;;;;3.65;1.77;;;9.20;65.10;;;;;;4933159;29;20071;-82
2021/04/12 07:17:04;;;;;;;3.55;1.60;;;9.40;65.00;;;;;;4874591;29;20041;-81
2021/04/12 07:19:44;;;;;;;4.50;1.90;;;9.70;64.80;;;;;;4872760;29;20045;-80
2021/04/12 07:22:13;;;;;;;3.13;1.70;;;9.90;64.60;;;;;;4863167;29;20396;-81
2021/04/12 07:25:18;;;;;;;2.50;1.02;;;10.10;64.40;;;;;;4861518;29;20149;-82
2021/04/12 07:27:50;;;;;;;5.57;0.70;;;10.30;64.20;;;;;;4860259;29;20037;-81
2021/04/12 07:30:22;;;;;;;3.88;1.42;;;10.50;63.90;;;;;;4882868;29;20040;-81
2021/04/12 07:33:25;;;;;;;6.40;1.50;;;10.60;63.80;;;;;;4908539;29;20423;-81
2021/04/12 07:36:17;;;;;;;3.38;1.40;;;10.80;63.60;;;;;;4907954;29;20157;-81
2021/04/12 07:39:11;;;;;;;2.38;1.35;;;10.90;63.30;;;;;;4901226;29;20028;-81
2021/04/12 07:42:14;;;;;;;2.72;1.15;;;11.10;63.30;;;;;;4952991;28;20054;-81
2021/04/12 07:45:13;;;;;;;2.97;0.93;;;11.20;63.20;;;;;;4952863;28;20031;-83
2021/04/12 07:48:06;;;;;;;2.70;1.15;;;11.40;62.90;;;;;;4951962;28;20046;-83
2021/04/12 07:51:02;;;;;;;2.85;1.52;;;11.50;62.80;;;;;;4951830;28;20046;-81
2021/04/12 07:54:06;;;;;;;3.60;1.05;;;11.70;62.60;;;;;;4965357;28;20061;-81
2021/04/12 07:56:35;;;;;;;1.15;0.98;;;12.00;62.30;;;;;;4982392;28;20053;-81
2021/04/12 07:59:38;;;;;;;4.85;1.05;;;12.20;62.00;;;;;;4978425;28;20199;-80
2021/04/12 08:02:21;;;;;;;0.90;0.38;;;12.40;61.70;;;;;;4978234;28;20033;-83
2021/04/12 08:05:38;;;;;;;0.93;0.60;;;12.60;61.40;;;;;;4992446;28;20027;-81
2021/04/12 08:08:41;;;;;;;0.95;0.40;;;12.70;61.30;;;;;;4972110;28;20053;-83
2021/04/12 08:11:42;;;;;;;2.40;1.23;;;12.80;61.30;;;;;;4957455;28;20054;-83
2021/04/12 08:14:56;;;;;;;3.33;0.70;;;13.00;61.10;;;;;;4957713;28;20034;-82
2021/04/12 08:17:48;;;;;;;2.22;0.82;;;13.20;60.70;;;;;;4916057;29;20512;-82
2021/04/12 08:20:26;;;;;;;1.92;0.85;;;13.40;60.40;;;;;;4917031;29;20090;-83
2021/04/12 08:23:15;;;;;;;1.80;1.00;;;13.70;60.20;;;;;;4917127;29;24147;-82
2021/04/12 08:26:05;;;;;;;6.72;1.25;;;13.80;60.00;;;;;;4901375;29;20028;-83
2021/04/12 08:29:08;;;;;;;1.65;1.02;;;14.00;59.80;;;;;;4917533;29;20172;-81
2021/04/12 08:32:02;;;;;;;1.70;0.95;;;14.20;59.70;;;;;;4913230;29;20567;-82
2021/04/12 08:35:00;;;;;;;6.07;0.80;;;14.30;59.60;;;;;;4936241;29;20129;-81
2021/04/12 08:37:32;;;;;;;1.67;0.73;;;14.50;59.50;;;;;;4936112;29;20047;-82
2021/04/12 08:40:25;;;;;;;2.30;0.93;;;14.60;59.20;;;;;;4935782;29;20059;-81
2021/04/12 08:42:58;;;;;;;1.17;0.52;;;14.70;59.10;;;;;;4940168;29;20043;-81
2021/04/12 08:45:42;;;;;;;1.40;0.73;;;14.80;58.90;;;;;;4975656;28;20035;-83
2021/04/12 08:48:27;;;;;;;2.22;0.60;;;14.80;58.90;;;;;;4964415;28;20039;-82
2021/04/12 08:51:12;;;;;;;2.08;0.73;;;14.90;58.90;;;;;;4972535;28;20415;-82
2021/04/12 08:53:59;;;;;;;4.38;0.98;;;15.00;58.80;;;;;;4983878;28;20047;-82
2021/04/12 08:56:57;;;;;;;1.40;0.30;;;15.20;58.70;;;;;;4994157;28;20022;-82
2021/04/12 08:59:58;;;;;;;1.00;0.35;;;15.30;58.40;;;;;;4981858;28;20058;-82
2021/04/12 09:02:57;;;;;;;1.02;0.40;;;15.50;58.30;;;;;;4983286;28;20031;-83
2021/04/12 09:05:33;;;;;;;1.73;0.75;;;15.50;58.20;;;;;;4984138;28;20046;-82
2021/04/12 09:08:21;;;;;;;1.55;0.13;;;15.60;58.20;;;;;;4996722;28;20518;-82
2021/04/12 09:11:05;;;;;;;1.35;0.20;;;15.70;58.10;;;;;;4993692;28;20046;-82
2021/04/12 09:13:52;;;;;;;0.65;0.28;;;15.80;57.90;;;;;;4990596;28;20060;-81
2021/04/12 09:16:24;;;;;;;2.08;0.75;;;15.80;57.60;;;;;;4992189;28;20046;-81
2021/04/12 09:19:12;;;;;;;0.00;0.00;;;15.70;58.00;;;;;;4996361;28;20026;-81
2021/04/12 09:22:16;;;;;;;1.10;0.40;;;15.80;57.60;;;;;;4994654;28;20038;-80
2021/04/12 09:25:00;;;;;;;2.20;0.55;;;15.90;57.00;;;;;;4994095;28;20030;-87
2021/04/12 09:28:03;;;;;;;2.17;0.57;;;15.60;56.50;;;;;;4993918;28;20034;-85
2021/04/12 09:30:53;;;;;;;0.80;0.20;;;15.40;56.80;;;;;;4992459;28;20034;-86
2021/04/12 09:33:48;;;;;;;0.28;0.10;;;15.40;57.10;;;;;;4990116;28;20042;-84
2021/04/12 09:36:20;;;;;;;1.50;0.40;;;15.50;56.80;;;;;;4991343;28;20022;-85
2021/04/12 09:39:11;;;;;;;0.17;0.00;;;15.50;56.20;;;;;;4989444;28;20026;-83
2021/04/12 09:41:50;;;;;;;1.52;0.17;;;15.60;56.40;;;;;;4985957;28;20022;-83
2021/04/12 09:44:46;;;;;;;1.65;0.20;;;15.80;56.10;;;;;;4993387;28;20037;-83
2021/04/12 09:47:40;;;;;;;0.20;0.05;;;16.00;55.80;;;;;;4991527;28;20053;-83
2021/04/12 09:50:35;;;;;;;0.45;0.20;;;16.30;55.40;;;;;;5024097;28;20034;-84
2021/04/12 09:53:24;;;;;;;1.33;0.50;;;16.60;55.00;;;;;;4975953;28;20034;-83
2021/04/12 09:56:04;;;;;;;1.25;0.47;;;16.70;54.80;;;;;;4992232;28;20034;-83
2021/04/12 09:58:33;;;;;;;0.45;0.10;;;16.60;54.90;;;;;;5004524;28;20045;-79
2021/04/12 10:01:14;;;;;;;1.50;0.68;;;16.50;55.10;;;;;;4988875;28;20034;-87
2021/04/12 10:03:59;;;;;;;6.60;1.13;;;16.40;55.30;;;;;;4990799;28;20027;-78
2021/04/12 10:06:37;;;;;;;0.47;0.20;;;15.90;55.60;;;;;;4992623;28;20023;-83
2021/04/12 10:09:28;;;;;;;0.85;0.38;;;15.60;55.80;;;;;;4993898;28;20031;-80
2021/04/12 10:12:20;;;;;;;0.40;0.20;;;15.60;56.00;;;;;;4988782;28;20034;-80
2021/04/12 10:14:54;;;;;;;0.98;0.47;;;15.80;55.70;;;;;;4993590;28;20514;-80
2021/04/12 10:17:31;;;;;;;0.35;0.15;;;16.10;55.40;;;;;;4972203;28;20038;-82
2021/04/12 10:20:00;;;;;;;1.33;0.45;;;16.30;54.90;;;;;;4971486;28;20484;-81
2021/04/12 10:22:46;;;;;;;4.57;0.32;;;16.30;54.50;;;;;;4955106;28;20028;-83
2021/04/12 10:25:32;;;;;;;0.80;0.13;;;16.10;54.50;;;;;;4988101;28;20039;-82
2021/04/12 10:28:23;;;;;;;0.30;0.10;;;15.70;54.80;;;;;;4972737;28;20026;-83
2021/04/12 10:31:07;;;;;;;0.47;0.15;;;15.20;55.10;;;;;;4974472;28;20054;-82
2021/04/12 10:33:43;;;;;;;0.55;0.28;;;14.80;55.50;;;;;;4990020;28;20034;-79
2021/04/12 10:36:19;;;;;;;0.17;0.08;;;14.50;55.90;;;;;;4988941;28;20030;-83
2021/04/12 10:38:45;;;;;;;1.02;0.45;;;14.30;55.90;;;;;;4983335;28;20042;-80
2021/04/12 10:41:32;;;;;;;0.82;0.28;;;14.10;55.80;;;;;;4993134;28;20041;-81
2021/04/12 10:44:27;;;;;;;2.08;0.50;;;13.90;56.00;;;;;;4992800;28;20680;-80
2021/04/12 10:46:58;;;;;;;1.50;0.38;;;14.10;55.90;;;;;;4950587;28;20055;-80
2021/04/12 10:49:52;;;;;;;0.35;0.22;;;14.60;55.30;;;;;;4934957;29;20078;-80
2021/04/12 10:52:24;;;;;;;2.95;0.17;;;14.90;54.40;;;;;;4916353;29;20039;-81
2021/04/12 10:55:07;;;;;;;1.15;0.40;;;14.80;54.10;;;;;;4930239;29;20529;-82
2021/04/12 10:58:00;;;;;;;0.65;0.38;;;14.70;54.10;;;;;;4935477;29;20039;-82
2021/04/12 11:01:02;;;;;;;0.85;0.15;;;14.80;54.10;;;;;;4938638;28;20043;-82
2021/04/12 11:03:39;;;;;;;4.70;0.50;;;15.10;53.50;;;;;;4930459;29;20047;-80
2021/04/12 11:06:10;;;;;;;2.80;0.47;;;15.30;52.90;;;;;;4918758;29;20035;-80
2021/04/12 11:08:46;;;;;;;0.32;0.10;;;15.30;52.30;;;;;;4937139;29;20074;-80
2021/04/12 11:11:15;;;;;;;5.47;0.57;;;15.20;52.50;;;;;;4945132;28;20039;-79
2021/04/12 11:13:59;;;;;;;0.35;0.10;;;15.10;52.80;;;;;;4951154;28;20189;-80
2021/04/12 11:16:57;;;;;;;0.10;0.00;;;15.00;53.00;;;;;;4934963;29;20032;-79
2021/04/12 11:19:47;;;;;;;1.00;0.63;;;15.10;52.90;;;;;;4937237;29;20050;-79
2021/04/12 11:22:28;;;;;;;0.68;0.30;;;15.40;52.10;;;;;;4938015;28;20492;-80
2021/04/12 11:25:11;;;;;;;0.68;0.10;;;15.60;51.50;;;;;;4991063;28;20038;-80
2021/04/12 11:28:00;;;;;;;0.20;0.10;;;15.80;51.40;;;;;;4987410;28;20034;-80
2021/04/12 11:30:48;;;;;;;0.85;0.50;;;16.10;51.10;;;;;;4991024;28;20057;-80
2021/04/12 11:33:33;;;;;;;0.20;0.10;;;16.40;50.60;;;;;;4987871;28;20033;-80
2021/04/12 11:36:37;;;;;;;0.25;0.05;;;16.50;50.20;;;;;;4989166;28;20045;-80
2021/04/12 11:39:15;;;;;;;1.17;0.47;;;16.40;50.00;;;;;;4991767;28;20034;-80
2021/04/12 11:42:10;;;;;;;1.15;0.65;;;16.40;50.40;;;;;;4980743;28;20057;-79
2021/04/12 11:44:36;;;;;;;1.15;0.25;;;16.40;50.40;;;;;;4991300;28;20046;-80
2021/04/12 11:47:27;;;;;;;6.85;0.30;;;16.30;50.40;;;;;;4987914;28;20398;-81
2021/04/12 11:50:02;;;;;;;0.77;0.30;;;16.20;50.30;;;;;;4987701;28;20042;-80
2021/04/12 11:52:43;;;;;;;0.17;0.00;;;15.90;50.10;;;;;;4982177;28;20514;-79
2021/04/12 11:55:37;;;;;;;0.55;0.03;;;15.70;49.80;;;;;;4974865;28;20483;-80
2021/04/12 11:58:32;;;;;;;0.03;0.00;;;15.40;50.10;;;;;;4992321;28;20026;-80
2021/04/12 12:01:07;;;;;;;0.55;0.32;;;15.20;50.20;;;;;;4970117;28;20038;-80
2021/04/12 12:03:56;;;;;;;0.60;0.30;;;15.30;50.00;;;;;;4952881;28;20042;-82
2021/04/12 12:06:59;;;;;;;0.43;0.10;;;15.40;49.50;;;;;;4951152;28;20039;-80
2021/04/12 12:09:40;;;;;;;0.35;0.10;;;15.50;49.30;;;;;;4986993;28;20043;-84
2021/04/12 12:12:33;;;;;;;0.35;0.22;;;15.80;48.90;;;;;;4948899;28;20492;-84
2021/04/12 12:15:08;;;;;;;2.38;0.22;;;16.20;48.60;;;;;;4971264;28;20467;-84
2021/04/12 12:17:41;;;;;;;0.68;0.35;;;16.30;47.90;;;;;;4952102;28;20046;-83
2021/04/12 12:20:48;;;;;;;6.40;0.35;;;16.30;48.20;;;;;;4963732;28;20035;-82
2021/04/12 12:23:31;;;;;;;3.38;0.30;;;16.30;48.40;;;;;;4968463;28;20042;-83
2021/04/12 12:25:58;;;;;;;0.63;0.25;;;16.40;48.40;;;;;;4969937;28;20045;-82
2021/04/12 12:28:41;;;;;;;0.20;0.10;;;16.30;47.80;;;;;;4968487;28;20027;-82
2021/04/12 12:31:31;;;;;;;0.00;0.00;;;16.10;48.20;;;;;;4962789;28;20423;-83
2021/04/12 12:34:20;;;;;;;0.47;0.00;;;15.90;48.30;;;;;;4962439;28;20059;-85
2021/04/12 12:36:58;;;;;;;0.90;0.20;;;15.70;48.40;;;;;;4952739;28;20043;-81
2021/04/12 12:39:46;;;;;;;0.95;0.20;;;15.50;48.30;;;;;;4987331;28;20053;-81
2021/04/12 12:42:24;;;;;;;0.10;0.00;;;15.40;48.40;;;;;;4990351;28;20035;-81
2021/04/12 12:44:54;;;;;;;0.73;0.13;;;15.70;48.30;;;;;;4985567;28;20049;-82
2021/04/12 12:47:22;;;;;;;0.20;0.00;;;16.00;48.00;;;;;;4989762;28;20431;-82
2021/04/12 12:49:59;;;;;;;0.08;0.00;;;16.30;47.70;;;;;;4975251;28;20476;-82
2021/04/12 12:52:39;;;;;;;0.20;0.00;;;16.60;47.40;;;;;;4973819;28;20407;-81
2021/04/12 12:55:24;;;;;;;0.32;0.10;;;16.80;47.10;;;;;;4983904;28;20042;-82
2021/04/12 12:57:52;;;;;;;0.30;0.05;;;16.90;47.00;;;;;;4990771;28;20042;-81
2021/04/12 13:00:45;;;;;;;0.28;0.13;;;17.00;47.00;;;;;;4992772;28;20396;-81
2021/04/12 13:03:26;;;;;;;0.50;0.00;;;17.00;46.20;;;;;;4982724;28;20049;-82
2021/04/12 13:05:52;;;;;;;0.30;0.10;;;17.00;46.10;;;;;;4988568;28;20038;-81
2021/04/12 13:08:27;;;;;;;0.40;0.32;;;17.00;45.90;;;;;;4992120;28;20034;-81
2021/04/12 13:10:54;;;;;;;0.32;0.05;;;17.10;45.90;;;;;;4990452;28;20057;-81
2021/04/12 13:13:27;;;;;;;0.73;0.10;;;17.00;45.30;;;;;;4994405;28;20050;-81
2021/04/12 13:15:54;;;;;;;0.32;0.10;;;17.00;45.10;;;;;;4991496;28;20039;-80
2021/04/12 13:18:27;;;;;;;0.10;0.00;;;17.00;45.20;;;;;;4989679;28;20022;-80
2021/04/12 13:20:54;;;;;;;0.52;0.10;;;16.90;45.00;;;;;;4993966;28;20026;-80
2021/04/12 13:23:36;;;;;;;2.65;0.55;;;16.70;45.00;;;;;;4991344;28;20484;-80
2021/04/12 13:26:23;;;;;;;0.17;0.00;;;16.40;45.00;;;;;;4995578;28;20578;-80
2021/04/12 13:28:49;;;;;;;0.52;0.10;;;16.20;45.20;;;;;;4979052;28;20046;-79
2021/04/12 13:31:21;;;;;;;0.43;0.20;;;16.00;45.00;;;;;;4988930;28;20031;-80
2021/04/12 13:33:48;;;;;;;0.13;0.10;;;16.00;45.20;;;;;;4993710;28;20053;-80
2021/04/12 13:36:30;;;;;;;0.30;0.05;;;15.90;45.10;;;;;;4994709;28;20034;-81
2021/04/12 13:39:00;;;;;;;1.95;0.47;;;15.90;45.30;;;;;;4993721;28;20038;-80
2021/04/12 13:41:27;;;;;;;0.70;0.30;;;15.80;45.40;;;;;;4992571;28;20026;-79
2021/04/12 13:43:55;;;;;;;2.70;0.43;;;15.80;45.40;;;;;;5001028;28;20368;-80
2021/04/12 13:46:27;;;;;;;0.65;0.10;;;15.90;45.30;;;;;;4987797;28;20407;-80
2021/04/12 13:49:02;;;;;;;0.03;0.00;;;16.30;45.30;;;;;;4984982;28;20504;-80
2021/04/12 13:51:44;;;;;;;0.10;0.00;;;16.60;45.00;;;;;;4993022;28;20041;-81
2021/04/12 13:54:26;;;;;;;0.10;0.00;;;16.90;44.50;;;;;;4984727;28;20058;-81
2021/04/12 13:57:03;;;;;;;0.13;0.03;;;17.10;44.00;;;;;;4990844;28;20365;-80
2021/04/12 13:59:39;;;;;;;0.73;0.20;;;17.00;43.80;;;;;;4992451;28;20031;-81
2021/04/12 14:02:12;;;;;;;0.15;0.03;;;16.80;43.40;;;;;;4987903;28;20038;-80
2021/04/12 14:04:40;;;;;;;0.10;0.00;;;16.30;43.00;;;;;;4984106;28;20022;-80
2021/04/12 14:07:48;;;;;;;0.30;0.10;;;16.10;43.40;;;;;;4972754;28;20043;-79
2021/04/12 14:10:21;;;;;;;0.10;0.00;;;16.00;43.60;;;;;;4983530;28;20022;-79
2021/04/12 14:12:57;;;;;;;0.40;0.10;;;16.00;43.80;;;;;;4985785;28;20384;-83
2021/04/12 14:15:37;;;;;;;0.10;0.00;;;16.20;44.00;;;;;;5017214;28;20829;-85
2021/04/12 14:18:05;;;;;;;0.17;0.00;;;16.40;43.90;;;;;;4985523;28;20049;-85
2021/04/12 14:20:38;;;;;;;3.63;0.30;;;16.60;43.60;;;;;;4988164;28;20030;-92
2021/04/12 14:23:13;;;;;;;0.10;0.00;;;16.60;42.90;;;;;;4973683;28;20033;-82